createdAt,value
2023-02-04T00:00:16.811Z,99.61
2023-02-04T00:02:46.598Z,99.61
2023-02-04T00:05:16.711Z,99.93
2023-02-04T00:07:46.468Z,100.00
2023-02-04T00:10:16.536Z,99.91
2023-02-04T00:12:49.155Z,100.00
2023-02-04T00:15:18.935Z,100.00
2023-02-04T00:17:48.676Z,100.00
2023-02-04T00:20:19.734Z,100.00
2023-02-04T00:22:49.510Z,100.00
2023-02-04T00:25:19.434Z,99.82
2023-02-04T00:27:51.833Z,99.61
2023-02-04T00:30:22.053Z,100.00
2023-02-04T00:32:54.838Z,99.71
2023-02-04T00:35:24.853Z,99.40
2023-02-04T00:37:54.858Z,100.00
2023-02-04T00:40:24.785Z,99.81
2023-02-04T00:42:57.184Z,100.00
2023-02-04T00:45:27.179Z,100.00
2023-02-04T00:47:57.344Z,99.73
2023-02-04T00:50:27.364Z,100.00
2023-02-04T00:52:57.309Z,99.36
2023-02-04T00:55:27.362Z,100.00
2023-02-04T00:57:59.757Z,100.00
2023-02-04T01:00:29.937Z,99.99
2023-02-04T01:03:00.068Z,100.00
2023-02-04T01:05:29.837Z,99.77
2023-02-04T01:07:59.564Z,99.83
2023-02-04T01:10:29.594Z,99.29
2023-02-04T01:13:02.257Z,99.58
2023-02-04T01:15:32.091Z,99.53
2023-02-04T01:18:02.044Z,98.91
2023-02-04T01:20:32.335Z,99.31
2023-02-04T01:23:02.273Z,99.14
2023-02-04T01:25:32.012Z,99.49
2023-02-04T01:28:04.556Z,97.87
2023-02-04T01:30:34.423Z,98.62
2023-02-04T01:33:04.427Z,98.54
2023-02-04T01:35:34.384Z,98.94
2023-02-04T01:38:04.409Z,99.19
2023-02-04T01:40:34.347Z,99.46
2023-02-04T01:43:07.019Z,99.14
2023-02-04T01:45:37.136Z,99.68
2023-02-04T01:48:08.413Z,99.48
2023-02-04T01:50:38.558Z,99.71
2023-02-04T01:53:08.351Z,99.38
2023-02-04T01:55:38.169Z,99.19
2023-02-04T01:58:13.069Z,98.88
2023-02-04T02:00:43.743Z,98.88
2023-02-04T02:03:13.732Z,98.85
2023-02-04T02:05:46.822Z,98.91
2023-02-04T02:08:17.984Z,99.33
2023-02-04T02:10:49.627Z,99.17
2023-02-04T02:13:22.828Z,99.18
2023-02-04T02:15:52.917Z,99.93
2023-02-04T02:18:23.466Z,99.89
2023-02-04T02:20:53.188Z,99.94
2023-02-04T02:23:30.810Z,99.18
2023-02-04T02:26:03.326Z,99.56
2023-02-04T02:28:33.163Z,99.40
2023-02-04T02:31:03.629Z,99.75
2023-02-04T02:33:33.534Z,99.40
2023-02-04T02:36:03.833Z,99.63
2023-02-04T02:38:33.572Z,99.54
2023-02-04T02:41:06.236Z,99.79
2023-02-04T02:43:36.277Z,99.76
2023-02-04T02:46:06.430Z,99.45
2023-02-04T02:48:36.544Z,99.54
2023-02-04T02:51:06.903Z,100.00
2023-02-04T02:53:36.928Z,99.55
2023-02-04T02:56:09.766Z,99.03
2023-02-04T02:58:39.529Z,99.38
2023-02-04T03:01:12.145Z,99.33
2023-02-04T03:03:45.944Z,99.57
2023-02-04T03:06:20.530Z,99.63
2023-02-04T03:08:55.388Z,99.79
2023-02-04T03:11:30.076Z,99.92
2023-02-04T03:14:02.419Z,99.72
2023-02-04T03:16:36.930Z,99.66
2023-02-04T03:19:09.593Z,100.00
2023-02-04T03:21:39.766Z,100.00
2023-02-04T03:24:10.151Z,99.84
2023-02-04T03:26:42.573Z,100.00
2023-02-04T03:29:13.429Z,100.00
2023-02-04T03:31:43.389Z,100.00
2023-02-04T03:34:13.275Z,99.91
2023-02-04T03:36:43.046Z,100.00
2023-02-04T03:39:12.864Z,100.00
2023-02-04T03:41:45.243Z,100.00
2023-02-04T03:44:15.033Z,99.87
2023-02-04T03:46:44.875Z,100.00
2023-02-04T03:49:14.604Z,100.00
2023-02-04T03:51:44.335Z,100.00
2023-02-04T03:54:14.085Z,100.00
2023-02-04T03:56:46.518Z,100.00
2023-02-04T03:59:16.206Z,100.00
2023-02-04T04:01:45.993Z,100.00
2023-02-04T04:04:15.730Z,100.00
2023-02-04T04:06:45.441Z,100.00
2023-02-04T04:09:15.185Z,100.00
2023-02-04T04:11:47.596Z,100.00
2023-02-04T04:14:17.409Z,100.00
2023-02-04T04:16:47.335Z,100.00
2023-02-04T04:19:17.371Z,100.00
2023-02-04T04:21:47.107Z,100.00
2023-02-04T04:24:16.891Z,100.00
2023-02-04T04:26:49.220Z,100.00
2023-02-04T04:29:21.859Z,100.00
2023-02-04T04:31:53.164Z,100.00
2023-02-04T04:34:22.918Z,100.00
2023-02-04T04:36:52.646Z,100.00
2023-02-04T04:39:22.383Z,100.00
2023-02-04T04:41:54.766Z,100.00
2023-02-04T04:44:24.493Z,100.00
2023-02-04T04:46:54.330Z,100.00
2023-02-04T04:49:24.288Z,100.00
2023-02-04T04:51:54.022Z,100.00
2023-02-04T04:54:23.912Z,100.00
2023-02-04T04:56:56.385Z,100.00
2023-02-04T04:59:26.274Z,100.00
2023-02-04T05:01:56.024Z,100.00
2023-02-04T05:04:25.897Z,100.00
2023-02-04T05:06:55.613Z,100.00
2023-02-04T05:09:25.351Z,100.00
2023-02-04T05:11:57.727Z,100.00
2023-02-04T05:14:27.633Z,100.00
2023-02-04T05:16:57.363Z,100.00
2023-02-04T05:19:27.217Z,100.00
2023-02-04T05:21:57.523Z,100.00
2023-02-04T05:24:27.358Z,100.00
2023-02-04T05:27:00.023Z,100.00
2023-02-04T05:29:29.839Z,100.00
2023-02-04T05:31:59.818Z,100.00
2023-02-04T05:34:29.556Z,100.00
2023-02-04T05:36:59.296Z,100.00
2023-02-04T05:39:29.017Z,100.00
2023-02-04T05:42:01.623Z,100.00
2023-02-04T05:44:31.467Z,100.00
2023-02-04T05:47:01.262Z,100.00
2023-02-04T05:49:31.093Z,100.00
2023-02-04T05:52:01.055Z,100.00
2023-02-04T05:54:30.842Z,100.00
2023-02-04T05:57:03.361Z,100.00
2023-02-04T05:59:33.453Z,100.00
2023-02-04T06:02:03.186Z,100.00
2023-02-04T06:04:33.054Z,100.00
2023-02-04T06:07:03.443Z,100.00
2023-02-04T06:09:33.458Z,100.00
2023-02-04T06:12:06.043Z,100.00
2023-02-04T06:14:35.800Z,100.00
2023-02-04T06:17:05.627Z,100.00
2023-02-04T06:19:35.515Z,100.00
2023-02-04T06:22:05.318Z,100.00
2023-02-04T06:24:35.465Z,100.00
2023-02-04T06:27:07.886Z,100.00
2023-02-04T06:29:37.624Z,100.00
2023-02-04T06:32:07.807Z,100.00
2023-02-04T06:34:37.640Z,100.00
2023-02-04T06:37:07.475Z,100.00
2023-02-04T06:39:37.209Z,100.00
2023-02-04T06:42:09.742Z,100.00
2023-02-04T06:44:39.552Z,100.00
2023-02-04T06:47:09.593Z,100.00
2023-02-04T06:49:39.315Z,100.00
2023-02-04T06:52:09.100Z,100.00
2023-02-04T06:54:39.189Z,100.00
2023-02-04T06:57:12.402Z,100.00
2023-02-04T06:59:43.891Z,100.00
2023-02-04T07:02:15.541Z,100.00
2023-02-04T07:04:47.694Z,100.00
2023-02-04T07:07:17.876Z,100.00
2023-02-04T07:09:47.727Z,100.00
2023-02-04T07:12:20.115Z,100.00
2023-02-04T07:14:50.155Z,100.00
2023-02-04T07:17:20.503Z,100.00
2023-02-04T07:19:50.288Z,100.00
2023-02-04T07:22:20.246Z,100.00
2023-02-04T07:24:50.158Z,100.00
2023-02-04T07:27:22.594Z,100.00
2023-02-04T07:29:52.290Z,100.00
2023-02-04T07:32:22.139Z,100.00
2023-02-04T07:34:51.876Z,100.00
2023-02-04T07:37:23.040Z,100.00
2023-02-04T07:39:52.785Z,100.00
2023-02-04T07:42:25.506Z,100.00
2023-02-04T07:44:55.223Z,100.00
2023-02-04T07:47:25.004Z,100.00
2023-02-04T07:49:57.087Z,100.00
2023-02-04T07:52:27.936Z,100.00
2023-02-04T07:54:57.628Z,100.00
2023-02-04T07:57:30.407Z,100.00
2023-02-04T08:00:00.348Z,100.00
2023-02-04T08:02:30.417Z,100.00
2023-02-04T08:05:00.513Z,100.00
2023-02-04T08:07:30.185Z,100.00
2023-02-04T08:10:00.079Z,100.00
2023-02-04T08:12:32.525Z,100.00
2023-02-04T08:15:02.332Z,100.00
2023-02-04T08:17:32.258Z,100.00
2023-02-04T08:20:02.212Z,100.00
2023-02-04T08:22:31.925Z,100.00
2023-02-04T08:25:01.724Z,100.00
2023-02-04T08:27:34.246Z,100.00
2023-02-04T08:30:04.029Z,100.00
2023-02-04T08:32:34.052Z,100.00
2023-02-04T08:35:06.344Z,100.00
2023-02-04T08:37:36.544Z,100.00
2023-02-04T08:40:06.757Z,100.00
2023-02-04T08:42:39.249Z,100.00
2023-02-04T08:45:09.677Z,100.00
2023-02-04T08:47:39.392Z,100.00
2023-02-04T08:50:10.337Z,100.00
2023-02-04T08:52:40.258Z,100.00
2023-02-04T08:55:11.389Z,100.00
2023-02-04T08:57:43.696Z,100.00
2023-02-04T09:00:15.355Z,100.00
2023-02-04T09:02:45.301Z,100.00
2023-02-04T09:05:15.148Z,100.00
2023-02-04T09:07:45.063Z,100.00
2023-02-04T09:10:14.884Z,100.00
2023-02-04T09:12:48.256Z,100.00
2023-02-04T09:15:18.285Z,100.00
2023-02-04T09:17:48.041Z,100.00
2023-02-04T09:20:18.113Z,100.00
2023-02-04T09:22:48.206Z,100.00
2023-02-04T09:25:18.078Z,100.00
2023-02-04T09:27:50.527Z,100.00
2023-02-04T09:30:20.905Z,100.00
2023-02-04T09:32:50.712Z,100.00
2023-02-04T09:35:20.402Z,100.00
2023-02-04T09:37:50.516Z,100.00
2023-02-04T09:40:21.753Z,100.00
2023-02-04T09:42:55.340Z,100.00
2023-02-04T09:45:28.273Z,100.00
2023-02-04T09:48:00.351Z,100.00
2023-02-04T09:50:32.624Z,100.00
2023-02-04T09:53:06.424Z,100.00
2023-02-04T09:55:38.146Z,100.00
2023-02-04T09:58:16.593Z,100.00
2023-02-04T10:00:48.111Z,100.00
2023-02-04T10:03:20.923Z,100.00
2023-02-04T10:05:51.790Z,100.00
2023-02-04T10:08:23.774Z,100.00
2023-02-04T10:10:53.922Z,100.00
2023-02-04T10:13:33.435Z,100.00
2023-02-04T10:16:04.287Z,100.00
2023-02-04T10:18:36.788Z,100.00
2023-02-04T10:21:17.545Z,100.00
2023-02-04T10:23:50.728Z,100.00
2023-02-04T10:26:21.008Z,100.00
2023-02-04T10:28:53.876Z,100.00
2023-02-04T10:31:33.128Z,100.00
2023-02-04T10:34:15.133Z,100.00
2023-02-04T10:36:47.780Z,100.00
2023-02-04T10:39:20.124Z,100.00
2023-02-04T10:41:54.534Z,100.00
2023-02-04T10:44:30.323Z,100.00
2023-02-04T10:47:04.154Z,100.00
2023-02-04T10:49:34.347Z,100.00
2023-02-04T10:52:05.977Z,100.00
2023-02-04T10:54:40.808Z,100.00
2023-02-04T10:57:21.761Z,100.00
2023-02-04T10:59:58.041Z,100.00
2023-02-04T11:02:44.178Z,100.00
2023-02-04T11:05:18.093Z,100.00
2023-02-04T11:07:49.593Z,100.00
2023-02-04T11:10:21.705Z,100.00
2023-02-04T11:13:04.400Z,100.00
2023-02-04T11:15:50.988Z,100.00
2023-02-04T11:18:32.877Z,100.00
2023-02-04T11:21:03.322Z,100.00
2023-02-04T11:23:37.112Z,100.00
2023-02-04T11:26:13.631Z,100.00
2023-02-04T11:29:13.156Z,100.00
2023-02-04T11:31:59.384Z,100.00
2023-02-04T11:34:35.275Z,100.00
2023-02-04T11:37:14.593Z,100.00
2023-02-04T11:39:47.337Z,100.00
2023-02-04T11:42:23.240Z,100.00
2023-02-04T11:44:55.369Z,100.00
2023-02-04T11:47:29.911Z,100.00
2023-02-04T11:50:04.412Z,100.00
2023-02-04T11:52:37.784Z,100.00
2023-02-04T11:55:08.385Z,100.00
2023-02-04T11:57:43.016Z,100.00
2023-02-04T12:00:17.902Z,100.00
2023-02-04T12:02:52.526Z,100.00
2023-02-04T12:05:23.308Z,100.00
2023-02-04T12:07:53.047Z,100.00
2023-02-04T12:10:28.016Z,99.88
2023-02-04T12:12:59.876Z,100.00
2023-02-04T12:15:36.791Z,99.71
2023-02-04T12:18:12.524Z,99.94
2023-02-04T12:20:42.540Z,100.00
2023-02-04T12:23:12.335Z,100.00
2023-02-04T12:25:42.106Z,100.00
2023-02-04T12:28:11.854Z,100.00
2023-02-04T12:30:41.826Z,100.00
2023-02-04T12:33:15.093Z,99.90
2023-02-04T12:35:44.971Z,99.64
2023-02-04T12:38:15.126Z,99.34
2023-02-04T12:40:44.942Z,99.10
2023-02-04T12:43:14.760Z,98.87
2023-02-04T12:45:46.480Z,98.25
2023-02-04T12:48:19.100Z,97.98
2023-02-04T12:50:48.885Z,98.58
2023-02-04T12:53:19.875Z,97.53
2023-02-04T12:55:49.878Z,97.78
2023-02-04T12:58:19.652Z,97.80
2023-02-04T13:00:49.500Z,97.52
2023-02-04T13:03:22.926Z,96.45
2023-02-04T13:05:52.975Z,96.37
2023-02-04T13:08:22.754Z,95.13
2023-02-04T13:10:53.389Z,95.23
2023-02-04T13:13:24.908Z,96.11
2023-02-04T13:15:54.724Z,94.74
2023-02-04T13:18:27.186Z,94.74
2023-02-04T13:20:56.978Z,95.48
2023-02-04T13:23:26.788Z,96.08
2023-02-04T13:25:56.528Z,93.66
2023-02-04T13:28:26.377Z,94.34
2023-02-04T13:30:56.246Z,93.80
2023-02-04T13:33:28.918Z,93.75
2023-02-04T13:35:59.081Z,95.06
2023-02-04T13:38:29.120Z,93.53
2023-02-04T13:40:58.824Z,93.44
2023-02-04T13:43:28.661Z,94.04
2023-02-04T13:45:58.536Z,94.60
2023-02-04T13:48:31.074Z,94.43
2023-02-04T13:51:00.852Z,94.59
2023-02-04T13:53:31.494Z,93.50
2023-02-04T13:56:01.618Z,93.78
2023-02-04T13:58:31.762Z,93.86
2023-02-04T14:01:01.762Z,93.38
2023-02-04T14:03:34.358Z,92.09
2023-02-04T14:06:04.422Z,92.83
2023-02-04T14:08:34.631Z,93.44
2023-02-04T14:11:05.210Z,93.74
2023-02-04T14:13:35.093Z,93.30
2023-02-04T14:16:05.472Z,92.93
2023-02-04T14:18:38.079Z,91.89
2023-02-04T14:21:11.172Z,92.03
2023-02-04T14:23:40.897Z,92.08
2023-02-04T14:26:10.707Z,91.82
2023-02-04T14:28:40.827Z,91.56
2023-02-04T14:31:10.740Z,91.52
2023-02-04T14:33:43.287Z,90.97
2023-02-04T14:36:13.540Z,91.02
2023-02-04T14:38:43.323Z,91.26
2023-02-04T14:41:16.488Z,92.25
2023-02-04T14:43:46.210Z,92.32
2023-02-04T14:46:16.336Z,92.88
2023-02-04T14:48:48.775Z,91.94
2023-02-04T14:51:19.709Z,92.18
2023-02-04T14:53:49.792Z,91.71
2023-02-04T14:56:19.801Z,91.71
2023-02-04T14:58:49.625Z,91.40
2023-02-04T15:01:20.058Z,91.50
2023-02-04T15:03:52.752Z,91.59
2023-02-04T15:06:22.694Z,91.24
2023-02-04T15:08:52.483Z,90.89
2023-02-04T15:11:22.272Z,91.19
2023-02-04T15:13:52.047Z,91.14
2023-02-04T15:16:21.851Z,90.20
2023-02-04T15:18:54.459Z,90.79
2023-02-04T15:21:24.224Z,89.84
2023-02-04T15:23:55.309Z,90.05
2023-02-04T15:26:25.238Z,90.48
2023-02-04T15:28:55.758Z,90.81
2023-02-04T15:31:26.170Z,91.38
2023-02-04T15:33:58.626Z,91.84
2023-02-04T15:36:28.728Z,92.25
2023-02-04T15:38:58.547Z,92.04
2023-02-04T15:41:30.870Z,92.43
2023-02-04T15:44:00.727Z,92.47
2023-02-04T15:46:30.464Z,92.73
2023-02-04T15:49:02.927Z,92.99
2023-02-04T15:51:32.848Z,93.06
2023-02-04T15:54:02.808Z,93.39
2023-02-04T15:56:32.660Z,93.57
2023-02-04T15:59:02.687Z,93.59
2023-02-04T16:01:32.440Z,93.62
2023-02-04T16:04:04.947Z,93.83
2023-02-04T16:06:34.719Z,94.34
2023-02-04T16:09:04.526Z,94.65
2023-02-04T16:11:36.021Z,94.63
2023-02-04T16:14:06.149Z,94.57
2023-02-04T16:16:36.244Z,94.37
2023-02-04T16:19:09.494Z,94.55
2023-02-04T16:21:39.306Z,94.60
2023-02-04T16:24:09.904Z,94.71
2023-02-04T16:26:39.610Z,94.82
2023-02-04T16:29:09.372Z,95.04
2023-02-04T16:31:39.226Z,95.07
2023-02-04T16:34:11.704Z,95.09
2023-02-04T16:36:41.451Z,95.37
2023-02-04T16:39:11.235Z,95.41
2023-02-04T16:41:41.026Z,95.40
2023-02-04T16:44:11.274Z,95.27
2023-02-04T16:46:41.350Z,95.65
2023-02-04T16:49:13.874Z,95.60
2023-02-04T16:51:43.707Z,95.78
2023-02-04T16:54:14.509Z,95.68
2023-02-04T16:56:44.276Z,95.62
2023-02-04T16:59:14.165Z,95.67
2023-02-04T17:01:44.130Z,95.62
2023-02-04T17:04:17.017Z,95.56
2023-02-04T17:06:46.818Z,95.80
2023-02-04T17:09:16.942Z,95.90
2023-02-04T17:11:46.900Z,95.82
2023-02-04T17:14:17.777Z,95.87
2023-02-04T17:16:49.432Z,95.99
2023-02-04T17:19:21.914Z,96.04
2023-02-04T17:21:51.697Z,96.08
2023-02-04T17:24:21.447Z,96.09
2023-02-04T17:26:51.217Z,96.22
2023-02-04T17:29:22.000Z,96.49
2023-02-04T17:31:52.785Z,96.41
2023-02-04T17:34:25.459Z,96.26
2023-02-04T17:36:55.367Z,96.56
2023-02-04T17:39:26.117Z,96.31
2023-02-04T17:41:55.816Z,96.38
2023-02-04T17:44:27.654Z,96.65
2023-02-04T17:46:59.157Z,96.47
2023-02-04T17:49:33.581Z,96.52
2023-02-04T17:52:05.869Z,96.46
2023-02-04T17:54:35.661Z,96.71
2023-02-04T17:57:20.533Z,96.16
2023-02-04T17:59:51.768Z,96.63
2023-02-04T18:02:29.735Z,96.64
2023-02-04T18:05:10.947Z,97.04
2023-02-04T18:07:40.827Z,96.96
2023-02-04T18:10:21.936Z,96.75
2023-02-04T18:12:51.855Z,97.54
2023-02-04T18:15:30.586Z,97.35
2023-02-04T18:18:04.481Z,97.72
2023-02-04T18:20:36.943Z,97.75
2023-02-04T18:23:15.729Z,97.34
2023-02-04T18:25:46.062Z,97.51
2023-02-04T18:28:19.451Z,97.54
2023-02-04T18:30:50.899Z,97.26
2023-02-04T18:33:23.065Z,97.66
2023-02-04T18:35:59.038Z,97.37
2023-02-04T18:38:32.373Z,97.67
2023-02-04T18:41:16.545Z,97.64
2023-02-04T18:43:50.769Z,97.89
2023-02-04T18:46:26.938Z,97.77
2023-02-04T18:49:03.029Z,98.02
2023-02-04T18:51:38.828Z,97.90
2023-02-04T18:54:30.016Z,98.44
2023-02-04T18:57:18.470Z,98.46
2023-02-04T18:59:48.330Z,98.71
2023-02-04T19:02:35.886Z,98.09
2023-02-04T19:05:22.125Z,98.56
2023-02-04T19:07:57.190Z,98.59
2023-02-04T19:10:38.887Z,98.32
2023-02-04T19:13:20.392Z,98.26
2023-02-04T19:15:59.906Z,98.25
2023-02-04T19:18:32.640Z,98.40
2023-02-04T19:21:18.027Z,98.23
2023-02-04T19:23:51.042Z,98.46
2023-02-04T19:26:38.309Z,98.39
2023-02-04T19:29:40.070Z,98.61
2023-02-04T19:32:27.655Z,98.85
2023-02-04T19:35:00.561Z,98.64
2023-02-04T19:37:34.713Z,98.98
2023-02-04T19:40:25.512Z,98.78
2023-02-04T19:42:56.828Z,99.16
2023-02-04T19:45:28.815Z,98.90
2023-02-04T19:47:59.817Z,99.00
2023-02-04T19:50:32.144Z,98.84
2023-02-04T19:53:04.958Z,98.85
2023-02-04T19:55:44.535Z,98.99
2023-02-04T19:58:19.759Z,99.20
2023-02-04T20:00:58.042Z,99.38
2023-02-04T20:03:36.927Z,99.13
2023-02-04T20:06:30.002Z,98.87
2023-02-04T20:09:09.473Z,99.35
2023-02-04T20:12:05.722Z,99.21
2023-02-04T20:14:50.469Z,99.32
2023-02-04T20:17:39.208Z,99.35
2023-02-04T20:20:27.885Z,100.00
2023-02-04T20:22:59.775Z,100.00
2023-02-04T20:25:42.025Z,99.89
2023-02-04T20:28:37.890Z,99.51
2023-02-04T20:31:25.258Z,99.57
2023-02-04T20:33:57.153Z,100.00
2023-02-04T20:36:41.027Z,99.72
2023-02-04T20:39:40.795Z,99.82
2023-02-04T20:42:40.126Z,100.00
2023-02-04T20:45:25.116Z,100.00
2023-02-04T20:47:56.857Z,100.00
2023-02-04T20:50:54.822Z,100.00
2023-02-04T20:53:26.965Z,100.00
2023-02-04T20:56:03.794Z,100.00
2023-02-04T20:58:39.280Z,100.00
2023-02-04T21:01:27.972Z,100.00
2023-02-04T21:03:59.550Z,100.00
2023-02-04T21:06:31.631Z,100.00
2023-02-04T21:09:04.457Z,100.00
2023-02-04T21:11:34.562Z,100.00
2023-02-04T21:14:04.343Z,100.00
2023-02-04T21:16:36.672Z,100.00
2023-02-04T21:19:06.602Z,100.00
2023-02-04T21:21:36.375Z,100.00
2023-02-04T21:24:06.279Z,100.00
2023-02-04T21:26:36.512Z,100.00
2023-02-04T21:29:07.175Z,100.00
2023-02-04T21:31:39.769Z,100.00
2023-02-04T21:34:10.173Z,100.00
2023-02-04T21:36:40.033Z,100.00
2023-02-04T21:39:09.794Z,100.00
2023-02-04T21:41:39.806Z,100.00
2023-02-04T21:44:09.667Z,100.00
2023-02-04T21:46:42.427Z,100.00
2023-02-04T21:49:12.177Z,100.00
2023-02-04T21:51:41.962Z,100.00
2023-02-04T21:54:11.888Z,100.00
2023-02-04T21:56:41.696Z,100.00
2023-02-04T21:59:11.924Z,100.00
2023-02-04T22:01:44.632Z,100.00
2023-02-04T22:04:14.887Z,100.00
2023-02-04T22:06:44.787Z,100.00
2023-02-04T22:09:14.923Z,100.00
2023-02-04T22:11:48.595Z,100.00
2023-02-04T22:14:31.056Z,100.00
2023-02-04T22:17:03.730Z,100.00
2023-02-04T22:19:33.592Z,100.00
2023-02-04T22:22:03.548Z,100.00
2023-02-04T22:24:33.452Z,100.00
2023-02-04T22:27:03.299Z,100.00
2023-02-04T22:29:33.740Z,100.00
2023-02-04T22:32:06.459Z,100.00
2023-02-04T22:34:36.464Z,100.00
2023-02-04T22:37:06.471Z,100.00
2023-02-04T22:39:36.611Z,100.00
2023-02-04T22:42:08.758Z,100.00
2023-02-04T22:44:38.757Z,100.00
2023-02-04T22:47:11.276Z,100.00
2023-02-04T22:49:41.118Z,100.00
2023-02-04T22:52:11.354Z,100.00
2023-02-04T22:54:41.270Z,100.00
2023-02-04T22:57:11.431Z,100.00
2023-02-04T22:59:41.469Z,100.00
2023-02-04T23:02:13.957Z,100.00
2023-02-04T23:04:44.453Z,100.00
2023-02-04T23:07:14.785Z,100.00
2023-02-04T23:09:44.588Z,100.00
2023-02-04T23:12:17.338Z,100.00
2023-02-04T23:14:49.222Z,100.00
2023-02-04T23:17:22.035Z,100.00
2023-02-04T23:19:51.919Z,100.00
2023-02-04T23:22:21.923Z,100.00
2023-02-04T23:24:52.042Z,100.00
2023-02-04T23:27:21.845Z,100.00
2023-02-04T23:29:51.990Z,100.00
2023-02-04T23:32:27.245Z,100.00
2023-02-04T23:34:57.044Z,100.00
2023-02-04T23:37:27.148Z,100.00
2023-02-04T23:39:56.976Z,100.00
2023-02-04T23:42:27.366Z,100.00
2023-02-04T23:44:57.241Z,100.00
2023-02-04T23:47:30.231Z,100.00
2023-02-04T23:50:00.038Z,100.00
2023-02-04T23:52:30.417Z,100.00
2023-02-04T23:55:00.353Z,100.00
2023-02-04T23:57:30.629Z,100.00
